Time;durP1;ratioP1;P1;durP2;ratioP2;P2;SDS_P1;SDS_P2;PMS_P1;PMS_P2;Temp;Humidity;BMP_temperature;BMP_pressure;BME280_temperature;BME280_humidity;BME280_pressure;Samples;Min_cycle;Max_cycle;Signal;HPM_P1;HPM_P2
2023/01/17 00:01:05;;;;;;;20.50;9.93;;;;;;;3.98;nan;-23927.66;5033176;28;20179;-81
2023/01/17 00:03:31;;;;;;;25.03;11.27;;;;;;;4.11;nan;-23931.06;5033054;28;20238;-83
2023/01/17 00:11:24;;;;;;;25.93;10.83;;;;;;;4.52;nan;-23942.75;5034493;28;20270;-83
2023/01/17 00:13:50;;;;;;;24.10;9.83;;;;;;;4.60;nan;-23944.88;5033170;28;20646;-83
2023/01/17 00:16:15;;;;;;;25.07;9.60;;;;;;;4.71;nan;-23948.03;5034427;28;20246;-82
2023/01/17 00:26:01;;;;;;;19.63;9.30;;;;;;;3.98;nan;-23927.50;5034162;28;20298;-81
2023/01/17 01:35:55;;;;;;;21.90;8.47;;;;;;;4.51;nan;-23942.31;5053467;28;20194;-82
2023/01/17 01:38:23;;;;;;;19.57;9.50;;;;;;;4.24;nan;-23934.91;5052284;28;20261;-82
2023/01/17 01:40:55;;;;;;;18.30;8.53;;;;;;;4.29;nan;-23936.19;5045103;28;20198;-83
2023/01/17 01:43:44;;;;;;;16.20;8.40;;;;;;;4.35;nan;-23938.06;5048201;28;20674;-82
2023/01/17 01:46:14;;;;;;;20.77;7.93;;;;;;;4.34;nan;-23937.63;5031188;28;20187;-82
2023/01/17 01:48:52;;;;;;;20.83;10.20;;;;;;;4.35;nan;-23938.06;5031949;28;20302;-82
2023/01/17 01:51:34;;;;;;;22.77;9.00;;;;;;;4.60;nan;-23944.88;5032799;28;20179;-82
2023/01/17 01:54:07;;;;;;;19.60;8.93;;;;;;;4.53;nan;-23943.03;5033423;28;20210;-79
2023/01/17 01:56:33;;;;;;;27.40;10.63;;;;;;;4.76;nan;-23949.44;5031786;28;20638;-82
2023/01/17 01:59:01;;;;;;;21.00;9.37;;;;;;;4.66;nan;-23946.59;5032854;28;20179;-83
2023/01/17 02:01:28;;;;;;;21.00;8.93;;;;;;;4.59;nan;-23944.59;5031718;28;20180;-82
2023/01/17 02:03:55;;;;;;;19.00;8.80;;;;;;;4.54;nan;-23943.19;5033205;28;20219;-81
2023/01/17 02:06:32;;;;;;;17.70;9.13;;;;;;;4.53;nan;-23943.03;5044408;28;20164;-81
2023/01/17 02:09:02;;;;;;;18.87;10.70;;;;;;;4.21;nan;-23933.94;5050129;28;20265;-81
2023/01/17 02:11:28;;;;;;;16.77;8.50;;;;;;;4.58;nan;-23944.31;5033806;28;20172;-80
2023/01/17 02:13:53;;;;;;;18.23;10.13;;;;;;;4.83;nan;-23951.56;5050019;28;20233;-81
2023/01/17 02:16:37;;;;;;;19.60;9.73;;;;;;;4.84;nan;-23951.84;5033747;28;20262;-82
2023/01/17 02:19:36;;;;;;;20.07;9.17;;;;;;;4.84;nan;-23951.84;5033030;28;20259;-82
2023/01/17 02:22:15;;;;;;;21.97;9.70;;;;;;;4.47;nan;-23941.19;5031738;28;20171;-81
2023/01/17 02:25:02;;;;;;;22.37;10.80;;;;;;;4.75;nan;-23949.16;5032701;28;20175;-81
2023/01/17 02:27:41;;;;;;;20.77;9.80;;;;;;;4.68;nan;-23947.31;5031469;28;20167;-81
2023/01/17 02:30:26;;;;;;;14.83;7.80;;;;;;;4.73;nan;-23948.72;5030952;28;20203;-82
2023/01/17 02:33:10;;;;;;;16.57;7.60;;;;;;;4.67;nan;-23947.03;5032723;28;20627;-83
2023/01/17 02:35:55;;;;;;;22.93;8.60;;;;;;;4.77;nan;-23949.88;5031448;28;20175;-81
2023/01/17 02:38:39;;;;;;;18.33;8.57;;;;;;;4.78;nan;-23950.00;5031251;28;20183;-82
2023/01/17 02:41:44;;;;;;;17.93;9.23;;;;;;;4.83;nan;-23951.44;5032720;28;20183;-81
2023/01/17 02:44:15;;;;;;;14.77;9.23;;;;;;;4.64;nan;-23946.16;4974695;28;20180;-82
2023/01/17 02:47:17;;;;;;;23.00;9.93;;;;;;;4.75;nan;-23949.16;4990428;28;20652;-81
2023/01/17 02:49:43;;;;;;;16.37;8.83;;;;;;;4.15;nan;-23932.22;5033087;28;20215;-82
2023/01/17 02:52:09;;;;;;;26.10;11.00;;;;;;;4.26;nan;-23935.50;5031016;28;20678;-82
2023/01/17 02:55:06;;;;;;;22.57;9.40;;;;;;;4.74;nan;-23949.00;5034610;28;20277;-81
2023/01/17 02:57:49;;;;;;;23.07;10.00;;;;;;;4.68;nan;-23947.31;5036375;28;20171;-81
2023/01/17 03:00:26;;;;;;;18.50;8.17;;;;;;;4.42;nan;-23939.91;5036179;28;20266;-81
2023/01/17 03:03:09;;;;;;;27.13;9.37;;;;;;;4.63;nan;-23945.75;5034788;28;20226;-83
2023/01/17 03:05:58;;;;;;;29.20;9.90;;;;;;;4.18;nan;-23933.06;5034448;28;20574;-83
2023/01/17 03:08:24;;;;;;;19.40;8.50;;;;;;;4.39;nan;-23939.19;5035831;28;20191;-82
2023/01/17 03:10:50;;;;;;;18.17;8.43;;;;;;;4.00;nan;-23928.22;5034657;28;20175;-81
2023/01/17 03:13:15;;;;;;;20.50;8.70;;;;;;;4.55;nan;-23943.47;5034558;28;20195;-83
2023/01/17 03:15:42;;;;;;;24.13;8.63;;;;;;;4.06;nan;-23929.78;5035471;28;20179;-82
2023/01/17 03:18:12;;;;;;;13.90;7.57;;;;;;;4.09;nan;-23930.66;5035909;28;20175;-81
2023/01/17 03:20:38;;;;;;;16.30;8.00;;;;;;;3.97;nan;-23927.38;5036317;28;20224;-82
2023/01/17 03:23:03;;;;;;;19.00;8.10;;;;;;;3.82;nan;-23923.09;5036465;28;20696;-83
2023/01/17 03:25:29;;;;;;;16.47;8.10;;;;;;;3.72;nan;-23920.09;5034196;28;20178;-82
2023/01/17 03:27:54;;;;;;;16.93;8.63;;;;;;;3.98;nan;-23927.66;5035366;28;20205;-81
2023/01/17 03:30:21;;;;;;;16.40;8.30;;;;;;;4.24;nan;-23934.91;5035335;28;20302;-82
2023/01/17 03:32:47;;;;;;;22.57;9.07;;;;;;;4.10;nan;-23930.94;5034767;28;20180;-82
2023/01/17 03:35:12;;;;;;;15.27;7.80;;;;;;;3.98;nan;-23927.50;5035409;28;20607;-80
2023/01/17 03:37:38;;;;;;;22.50;8.77;;;;;;;3.97;nan;-23927.38;5036242;28;20175;-83
2023/01/17 03:40:04;;;;;;;25.23;9.43;;;;;;;4.14;nan;-23931.94;5035360;28;20557;-81
2023/01/17 03:42:29;;;;;;;22.63;8.57;;;;;;;4.20;nan;-23933.78;5034609;28;20206;-83
2023/01/17 03:44:55;;;;;;;26.73;8.97;;;;;;;4.04;nan;-23929.09;5033923;28;20167;-82
2023/01/17 03:47:20;;;;;;;22.87;8.27;;;;;;;4.18;nan;-23933.22;5035995;28;20163;-83
2023/01/17 03:49:46;;;;;;;19.37;8.50;;;;;;;4.21;nan;-23934.06;5035493;28;20720;-82
2023/01/17 03:52:14;;;;;;;19.60;8.40;;;;;;;4.43;nan;-23940.34;5035856;28;20199;-82
2023/01/17 03:54:40;;;;;;;19.23;8.60;;;;;;;4.01;nan;-23928.38;5035277;28;20172;-82
2023/01/17 03:57:05;;;;;;;14.40;7.27;;;;;;;4.28;nan;-23935.91;5035491;28;20232;-82
2023/01/17 03:59:32;;;;;;;15.47;6.90;;;;;;;4.28;nan;-23936.06;5035646;28;20178;-80
2023/01/17 04:01:58;;;;;;;16.40;8.77;;;;;;;4.00;nan;-23928.22;5045741;28;20223;-82
2023/01/17 04:04:23;;;;;;;16.37;7.73;;;;;;;4.13;nan;-23931.78;5046088;28;20529;-82
2023/01/17 04:06:49;;;;;;;17.77;7.60;;;;;;;3.92;nan;-23925.94;5035874;28;20669;-82
2023/01/17 04:09:14;;;;;;;13.57;7.33;;;;;;;4.30;nan;-23936.63;5035045;28;20214;-81
2023/01/17 04:11:39;;;;;;;16.03;8.50;;;;;;;4.25;nan;-23935.22;5035275;28;20202;-82
2023/01/17 04:14:05;;;;;;;19.43;7.37;;;;;;;4.25;nan;-23935.22;5033981;28;20179;-82
2023/01/17 04:16:31;;;;;;;19.70;9.07;;;;;;;4.35;nan;-23937.91;5034579;28;20188;-82
2023/01/17 04:18:56;;;;;;;14.13;7.27;;;;;;;4.45;nan;-23940.91;5037760;28;20171;-82
2023/01/17 04:21:22;;;;;;;17.67;8.73;;;;;;;4.07;nan;-23930.06;5033780;28;20186;-82
2023/01/17 04:23:48;;;;;;;13.10;7.50;;;;;;;4.34;nan;-23937.78;5028352;28;20190;-81
2023/01/17 04:26:14;;;;;;;16.83;8.80;;;;;;;4.13;nan;-23931.78;5036245;28;20187;-81
2023/01/17 04:28:40;;;;;;;26.27;7.10;;;;;;;3.72;nan;-23920.25;5042289;28;20211;-81
2023/01/17 04:31:05;;;;;;;16.97;8.50;;;;;;;4.29;nan;-23936.34;5043102;28;20183;-82
2023/01/17 04:33:31;;;;;;;17.50;8.27;;;;;;;4.34;nan;-23937.63;5026726;28;20642;-83
2023/01/17 04:35:57;;;;;;;18.10;8.70;;;;;;;4.27;nan;-23935.78;5026655;28;20183;-83
2023/01/17 04:38:22;;;;;;;17.60;7.27;;;;;;;4.09;nan;-23930.66;5027231;28;20184;-82
2023/01/17 04:40:49;;;;;;;24.50;8.07;;;;;;;3.99;nan;-23927.94;5027777;28;20183;-82
2023/01/17 04:43:15;;;;;;;13.97;6.93;;;;;;;4.11;nan;-23931.22;5026297;28;20187;-81
2023/01/17 04:45:41;;;;;;;18.60;7.70;;;;;;;4.44;nan;-23940.63;5024759;28;20190;-81
2023/01/17 04:48:07;;;;;;;20.20;8.40;;;;;;;4.46;nan;-23941.03;5027310;28;20195;-82
2023/01/17 04:50:32;;;;;;;19.57;9.57;;;;;;;4.54;nan;-23943.19;5028248;28;20191;-83
2023/01/17 04:52:59;;;;;;;16.17;8.23;;;;;;;4.18;nan;-23933.22;5026416;28;20199;-82
2023/01/17 04:55:25;;;;;;;15.33;7.00;;;;;;;4.63;nan;-23945.75;5027082;28;20191;-82
2023/01/17 04:57:50;;;;;;;18.87;7.57;;;;;;;4.60;nan;-23944.88;5025847;28;20440;-83
2023/01/17 05:00:16;;;;;;;19.53;7.83;;;;;;;4.44;nan;-23940.63;5026074;28;20191;-82
2023/01/17 05:02:41;;;;;;;25.50;8.77;;;;;;;4.60;nan;-23945.03;5041415;28;20227;-82
2023/01/17 05:05:07;;;;;;;20.27;7.40;;;;;;;4.51;nan;-23942.31;5027316;28;20222;-82
2023/01/17 05:07:33;;;;;;;18.73;7.33;;;;;;;4.65;nan;-23946.44;5026915;28;20724;-81
2023/01/17 05:10:01;;;;;;;31.13;9.77;;;;;;;4.61;nan;-23945.16;5024514;28;20207;-82
2023/01/17 05:12:27;;;;;;;18.37;8.03;;;;;;;4.44;nan;-23940.63;5026421;28;20191;-82
2023/01/17 05:14:52;;;;;;;19.50;8.57;;;;;;;4.11;nan;-23931.06;5025466;28;20333;-82
2023/01/17 05:17:18;;;;;;;16.77;7.30;;;;;;;4.02;nan;-23928.66;5026011;28;20227;-81
2023/01/17 05:19:44;;;;;;;21.87;6.50;;;;;;;4.48;nan;-23941.63;5026609;28;20187;-82
2023/01/17 05:22:14;;;;;;;15.70;7.00;;;;;;;4.36;nan;-23938.34;5033422;28;20190;-82
2023/01/17 05:24:46;;;;;;;20.40;7.90;;;;;;;4.25;nan;-23935.22;5029069;28;20647;-82
2023/01/17 05:27:12;;;;;;;26.17;8.23;;;;;;;4.34;nan;-23937.78;5027568;28;20183;-82
2023/01/17 05:29:38;;;;;;;26.73;9.17;;;;;;;4.22;nan;-23934.34;5031481;28;20229;-83
2023/01/17 05:32:04;;;;;;;17.97;7.30;;;;;;;4.46;nan;-23941.03;5031721;28;20655;-84
2023/01/17 05:34:30;;;;;;;19.90;8.03;;;;;;;3.93;nan;-23926.22;5031485;28;20179;-81
2023/01/17 05:36:56;;;;;;;18.80;8.20;;;;;;;4.25;nan;-23935.22;5033463;28;20170;-81
2023/01/17 05:39:22;;;;;;;14.67;6.90;;;;;;;4.28;nan;-23936.06;5032441;28;20167;-81
2023/01/17 05:41:47;;;;;;;15.53;7.73;;;;;;;4.18;nan;-23933.22;5031083;28;20266;-83
2023/01/17 05:44:14;;;;;;;16.27;7.13;;;;;;;4.31;nan;-23936.91;5032158;28;20171;-83
2023/01/17 05:46:39;;;;;;;25.77;8.40;;;;;;;4.00;nan;-23928.09;5032363;28;20170;-82
2023/01/17 05:49:05;;;;;;;17.83;8.23;;;;;;;4.25;nan;-23935.22;5032225;28;20203;-82
2023/01/17 05:51:30;;;;;;;16.43;6.80;;;;;;;4.49;nan;-23941.91;5033037;28;20353;-81
2023/01/17 05:53:56;;;;;;;20.30;7.83;;;;;;;4.48;nan;-23941.63;5030470;28;20183;-82
2023/01/17 05:56:21;;;;;;;18.30;8.33;;;;;;;4.57;nan;-23944.19;5032230;28;20211;-83
2023/01/17 05:58:46;;;;;;;25.70;9.70;;;;;;;4.18;nan;-23933.22;5032503;28;20175;-82
2023/01/17 06:01:12;;;;;;;19.43;9.13;;;;;;;4.14;nan;-23932.06;5031077;28;20642;-83
2023/01/17 06:03:37;;;;;;;19.60;8.20;;;;;;;4.37;nan;-23938.47;5032692;28;20258;-82
2023/01/17 06:06:03;;;;;;;15.43;7.17;;;;;;;4.29;nan;-23936.34;5030823;28;20192;-81
2023/01/17 06:08:28;;;;;;;36.20;9.93;;;;;;;4.13;nan;-23931.66;5032106;28;20206;-83
2023/01/17 06:10:54;;;;;;;17.53;8.63;;;;;;;4.13;nan;-23931.66;5032475;28;20310;-80
2023/01/17 06:13:20;;;;;;;31.83;7.60;;;;;;;4.35;nan;-23937.91;5032094;28;20250;-81
2023/01/17 06:15:47;;;;;;;39.47;8.97;;;;;;;4.44;nan;-23940.47;5032241;28;20171;-78
2023/01/17 06:18:15;;;;;;;19.63;7.87;;;;;;;4.54;nan;-23943.31;5033155;28;20719;-83
2023/01/17 06:20:40;;;;;;;35.80;11.10;;;;;;;4.40;nan;-23939.47;5032824;28;20182;-78
2023/01/17 06:23:09;;;;;;;15.00;7.87;;;;;;;4.80;nan;-23950.56;5032392;28;20168;-84
2023/01/17 06:25:45;;;;;;;29.00;10.23;;;;;;;4.69;nan;-23947.44;5030604;28;20187;-83
2023/01/17 06:28:13;;;;;;;28.70;8.40;;;;;;;4.40;nan;-23939.47;5028820;28;20256;-82
2023/01/17 06:30:39;;;;;;;25.63;8.97;;;;;;;4.73;nan;-23948.59;5031909;28;20182;-83
2023/01/17 06:33:05;;;;;;;16.23;8.17;;;;;;;4.74;nan;-23948.88;5030111;28;20179;-78
2023/01/17 06:35:31;;;;;;;24.50;7.80;;;;;;;4.71;nan;-23948.03;5018771;28;20184;-79
2023/01/17 06:37:58;;;;;;;19.10;8.77;;;;;;;4.39;nan;-23939.06;5025355;28;20581;-81
2023/01/17 06:40:25;;;;;;;29.73;8.67;;;;;;;4.45;nan;-23940.75;5031620;28;20175;-79
2023/01/17 06:42:51;;;;;;;22.57;9.50;;;;;;;4.52;nan;-23942.59;5030793;28;20280;-80
2023/01/17 06:45:17;;;;;;;20.93;9.70;;;;;;;4.95;nan;-23954.72;5030672;28;20229;-81
2023/01/17 06:47:43;;;;;;;23.67;8.90;;;;;;;4.99;nan;-23956.00;5029669;28;20708;-83
2023/01/17 06:50:12;;;;;;;33.53;8.43;;;;;;;4.86;nan;-23952.28;5030964;28;20205;-82
2023/01/17 06:52:38;;;;;;;17.83;7.67;;;;;;;4.80;nan;-23950.56;5031033;28;20190;-80
2023/01/17 06:55:04;;;;;;;27.17;7.80;;;;;;;4.93;nan;-23954.28;5031510;28;20175;-80
2023/01/17 06:57:30;;;;;;;21.03;7.47;;;;;;;4.53;nan;-23942.91;5029994;28;20249;-83
2023/01/17 06:59:55;;;;;;;22.93;7.17;;;;;;;4.87;nan;-23952.72;5039061;28;20176;-81
2023/01/17 07:02:21;;;;;;;28.87;9.37;;;;;;;4.94;nan;-23954.41;5044481;28;20219;-82
2023/01/17 07:04:46;;;;;;;17.30;7.47;;;;;;;4.85;nan;-23952.16;5048172;28;20692;-82
2023/01/17 07:07:11;;;;;;;26.50;7.80;;;;;;;5.02;nan;-23956.84;5030096;28;20183;-80
2023/01/17 07:09:37;;;;;;;31.03;9.70;;;;;;;5.12;nan;-23959.69;5029715;28;20337;-81
2023/01/17 07:12:02;;;;;;;34.30;7.63;;;;;;;5.20;nan;-23961.97;5031945;28;20187;-82
2023/01/17 07:14:28;;;;;;;26.97;9.47;;;;;;;5.33;nan;-23965.50;5030499;28;20270;-83
2023/01/17 07:16:54;;;;;;;29.47;10.40;;;;;;;5.19;nan;-23961.66;5029893;28;20184;-80
2023/01/17 07:19:20;;;;;;;18.07;7.63;;;;;;;5.75;nan;-23977.31;5029117;28;20176;-83
2023/01/17 07:21:49;;;;;;;20.10;7.63;;;;;;;5.81;nan;-23979.00;5029289;28;20172;-82
2023/01/17 07:24:17;;;;;;;27.70;8.43;;;;;;;5.58;nan;-23972.63;5031073;28;20229;-84
2023/01/17 07:26:42;;;;;;;27.17;9.07;;;;;;;5.23;nan;-23962.81;5031369;28;20164;-80
2023/01/17 07:29:07;;;;;;;29.93;10.00;;;;;;;5.92;nan;-23982.16;5030294;28;20572;-80
2023/01/17 07:31:35;;;;;;;31.87;8.47;;;;;;;6.16;nan;-23988.97;5044170;28;20175;-81
2023/01/17 07:34:01;;;;;;;23.90;9.37;;;;;;;5.53;nan;-23971.06;5042136;28;20247;-81
2023/01/17 07:36:27;;;;;;;21.17;8.43;;;;;;;5.29;nan;-23964.38;5030159;28;20187;-83
2023/01/17 07:38:53;;;;;;;18.27;8.40;;;;;;;4.85;nan;-23952.16;5031071;28;20186;-84
2023/01/17 07:41:18;;;;;;;24.13;8.73;;;;;;;5.11;nan;-23959.25;5034267;28;20176;-82
2023/01/17 07:43:44;;;;;;;21.60;7.50;;;;;;;5.53;nan;-23971.19;5035095;28;20631;-83
2023/01/17 07:46:10;;;;;;;28.67;8.60;;;;;;;5.71;nan;-23976.16;5033543;28;20325;-80
2023/01/17 07:48:35;;;;;;;24.20;9.07;;;;;;;6.00;nan;-23984.28;5033573;28;20270;-86
2023/01/17 07:51:00;;;;;;;30.17;8.63;;;;;;;6.00;nan;-23984.41;5033803;28;20608;-83
2023/01/17 07:53:28;;;;;;;23.70;8.03;;;;;;;6.04;nan;-23985.56;5032348;28;20540;-84
2023/01/17 07:55:54;;;;;;;22.57;9.27;;;;;;;5.85;nan;-23980.16;5034345;28;20171;-84
2023/01/17 07:58:19;;;;;;;15.63;8.07;;;;;;;6.21;nan;-23990.38;5032679;28;20194;-80
2023/01/17 08:00:45;;;;;;;25.83;9.23;;;;;;;6.01;nan;-23984.69;5030679;28;20179;-80
2023/01/17 08:03:13;;;;;;;28.43;9.53;;;;;;;6.36;nan;-23994.34;5027500;28;20695;-80
2023/01/17 08:05:40;;;;;;;19.13;9.43;;;;;;;6.45;nan;-23996.91;4996228;28;20195;-81
2023/01/17 08:08:05;;;;;;;31.40;8.30;;;;;;;6.58;nan;-24000.59;5013785;28;20613;-82
2023/01/17 08:10:30;;;;;;;25.00;8.90;;;;;;;6.54;nan;-23999.63;4996559;28;20219;-81
2023/01/17 08:12:56;;;;;;;22.50;9.63;;;;;;;6.54;nan;-23999.47;5014125;28;20267;-82
2023/01/17 08:15:22;;;;;;;30.30;9.93;;;;;;;6.63;nan;-24002.03;4996830;28;20242;-83
2023/01/17 08:17:52;;;;;;;22.17;8.97;;;;;;;6.91;nan;-24009.97;4996468;28;20572;-80
2023/01/17 08:20:18;;;;;;;30.37;10.47;;;;;;;6.71;nan;-24004.16;5014361;28;20180;-81
2023/01/17 08:22:43;;;;;;;26.67;10.47;;;;;;;6.51;nan;-23998.63;4996380;28;21201;-81
2023/01/17 08:25:09;;;;;;;28.43;9.80;;;;;;;6.65;nan;-24002.72;5013187;28;20213;-82
2023/01/17 08:27:35;;;;;;;23.27;9.27;;;;;;;6.86;nan;-24008.56;5014081;28;20173;-78
2023/01/17 08:30:00;;;;;;;27.63;9.60;;;;;;;6.96;nan;-24011.38;5012167;28;20207;-81
2023/01/17 08:32:26;;;;;;;23.57;9.40;;;;;;;6.83;nan;-24007.56;5012329;28;20215;-80
2023/01/17 08:34:51;;;;;;;24.43;11.73;;;;;;;6.70;nan;-24003.88;5013346;28;20258;-78
2023/01/17 08:37:16;;;;;;;22.73;9.67;;;;;;;7.18;nan;-24017.47;5012224;28;20184;-80
2023/01/17 08:39:42;;;;;;;27.20;10.97;;;;;;;7.24;nan;-24019.03;5012008;28;20194;-83
2023/01/17 08:42:07;;;;;;;26.50;9.67;;;;;;;7.11;nan;-24015.50;5013277;28;20271;-78
2023/01/17 08:44:33;;;;;;;27.97;10.70;;;;;;;7.24;nan;-24019.19;4995680;28;20187;-82
2023/01/17 08:46:58;;;;;;;18.60;9.23;;;;;;;7.48;nan;-24025.84;4995688;28;20187;-80
2023/01/17 08:49:24;;;;;;;32.53;10.63;;;;;;;7.43;nan;-24024.56;5012463;28;20230;-80
2023/01/17 08:51:51;;;;;;;25.60;11.27;;;;;;;6.97;nan;-24011.66;5012485;28;20200;-81
2023/01/17 08:54:17;;;;;;;29.93;9.20;;;;;;;7.49;nan;-24026.13;5011633;28;20636;-79
2023/01/17 08:56:43;;;;;;;26.53;10.20;;;;;;;7.77;nan;-24033.94;5012953;28;20716;-80
2023/01/17 08:59:12;;;;;;;29.43;9.63;;;;;;;7.89;nan;-24037.47;4995480;28;20252;-76
2023/01/17 09:01:40;;;;;;;24.23;8.23;;;;;;;7.71;nan;-24032.22;5012870;28;20194;-79
2023/01/17 09:04:09;;;;;;;19.00;9.13;;;;;;;7.62;nan;-24029.81;5048067;28;20206;-78
2023/01/17 09:06:38;;;;;;;19.13;9.30;;;;;;;7.71;nan;-24032.22;5031199;28;20175;-78
2023/01/17 09:09:04;;;;;;;24.23;10.40;;;;;;;7.63;nan;-24029.97;5031252;28;20199;-77
2023/01/17 09:11:29;;;;;;;27.20;8.93;;;;;;;7.79;nan;-24034.50;5032819;28;20245;-76
2023/01/17 09:13:55;;;;;;;23.07;9.13;;;;;;;7.49;nan;-24026.28;5032878;28;20201;-79
2023/01/17 09:16:20;;;;;;;24.47;9.73;;;;;;;7.22;nan;-24018.47;5032731;28;20175;-78
2023/01/17 09:18:46;;;;;;;25.23;9.90;;;;;;;6.54;nan;-23999.47;5031259;28;20634;-80
2023/01/17 09:21:16;;;;;;;24.20;9.07;;;;;;;6.87;nan;-24008.84;5032316;28;20209;-77
2023/01/17 09:23:42;;;;;;;25.30;9.07;;;;;;;6.57;nan;-24000.47;5032425;28;20541;-77
2023/01/17 09:26:18;;;;;;;33.20;11.57;;;;;;;6.59;nan;-24000.88;5032496;28;20183;-78
2023/01/17 09:28:43;;;;;;;22.67;10.40;;;;;;;6.46;nan;-23997.19;5032585;28;20194;-79
2023/01/17 09:31:09;;;;;;;26.03;11.13;;;;;;;6.12;nan;-23987.69;5032180;28;20658;-78
2023/01/17 09:33:35;;;;;;;33.67;11.67;;;;;;;6.08;nan;-23986.56;5031850;28;20229;-76
2023/01/17 09:36:03;;;;;;;28.37;11.23;;;;;;;6.58;nan;-24000.59;5034610;28;20182;-77
2023/01/17 09:38:29;;;;;;;36.70;10.57;;;;;;;6.86;nan;-24008.56;5050525;28;20151;-75
2023/01/17 09:40:54;;;;;;;26.77;12.00;;;;;;;6.65;nan;-24002.59;5039057;28;20233;-78
2023/01/17 09:43:31;;;;;;;27.30;9.97;;;;;;;6.78;nan;-24006.28;5032806;28;20642;-79
2023/01/17 09:45:57;;;;;;;34.63;11.07;;;;;;;6.85;nan;-24008.25;5033204;28;20170;-79
2023/01/17 09:48:31;;;;;;;26.83;12.13;;;;;;;6.75;nan;-24005.44;5033342;28;20172;-80
2023/01/17 09:51:01;;;;;;;24.30;10.40;;;;;;;6.87;nan;-24008.69;5032245;28;20167;-79
2023/01/17 09:53:33;;;;;;;32.37;10.93;;;;;;;6.95;nan;-24011.09;5032769;28;20167;-84
2023/01/17 09:56:11;;;;;;;23.70;10.87;;;;;;;7.17;nan;-24017.06;5034631;28;20172;-85
2023/01/17 09:58:58;;;;;;;29.57;11.63;;;;;;;7.43;nan;-24024.44;5034626;28;20182;-83
2023/01/17 10:01:33;;;;;;;46.33;12.57;;;;;;;8.36;nan;-24050.50;5032927;28;20626;-84
2023/01/17 10:04:09;;;;;;;32.37;12.53;;;;;;;8.69;nan;-24059.84;5029939;28;20234;-82
2023/01/17 10:06:53;;;;;;;35.13;13.48;;;;;;;8.71;nan;-24060.41;5030085;28;20179;-84
2023/01/17 10:09:50;;;;;;;31.85;13.02;;;;;;;8.91;nan;-24065.94;5032928;28;20199;-87
2023/01/17 10:12:22;;;;;;;39.50;14.52;;;;;;;9.18;nan;-24073.41;5024281;28;20249;-84
2023/01/17 10:15:13;;;;;;;38.88;15.40;;;;;;;9.46;nan;-24081.34;5030367;28;20182;-84
2023/01/17 10:17:47;;;;;;;17.15;10.65;;;;;;;9.62;nan;-24085.72;5017203;28;20199;-84
2023/01/17 10:20:32;;;;;;;30.50;12.00;;;;;;;9.37;nan;-24078.78;5032984;28;20178;-84
2023/01/17 10:23:33;;;;;;;24.63;11.05;;;;;;;9.49;nan;-24082.19;5032062;28;20187;-82
2023/01/17 10:26:04;;;;;;;30.45;12.90;;;;;;;9.19;nan;-24073.84;5013255;28;20213;-85
2023/01/17 10:28:29;;;;;;;24.67;11.15;;;;;;;9.50;nan;-24082.31;5032861;28;20179;-85
2023/01/17 10:31:01;;;;;;;27.83;10.98;;;;;;;9.32;nan;-24077.38;5033664;28;20175;-84
2023/01/17 10:33:34;;;;;;;27.98;11.98;;;;;;;8.96;nan;-24067.19;5038622;28;20205;-81
2023/01/17 10:36:19;;;;;;;29.45;10.80;;;;;;;9.19;nan;-24073.84;5037268;28;20207;-84
2023/01/17 10:38:48;;;;;;;21.35;10.43;;;;;;;9.15;nan;-24072.72;5037515;28;20221;-82
2023/01/17 10:41:40;;;;;;;25.30;11.20;;;;;;;9.11;nan;-24071.44;5035264;28;20278;-84
2023/01/17 10:44:33;;;;;;;28.58;11.02;;;;;;;9.25;nan;-24075.41;5033636;28;20665;-82
2023/01/17 10:47:11;;;;;;;24.40;10.45;;;;;;;9.32;nan;-24077.38;5031921;28;20190;-82
2023/01/17 10:49:48;;;;;;;20.67;9.80;;;;;;;9.22;nan;-24074.56;5035473;28;20199;-82
2023/01/17 10:52:45;;;;;;;31.55;12.68;;;;;;;8.54;nan;-24055.47;5052439;28;20649;-84
2023/01/17 10:55:38;;;;;;;23.75;10.32;;;;;;;9.06;nan;-24070.03;5032188;28;20285;-83
2023/01/17 10:58:07;;;;;;;22.77;11.45;;;;;;;9.54;nan;-24083.59;5032654;28;20241;-84
2023/01/17 11:00:48;;;;;;;30.25;9.35;;;;;;;9.90;nan;-24093.47;5030288;28;20181;-82
2023/01/17 11:03:19;;;;;;;27.90;11.10;;;;;;;9.84;nan;-24091.94;5031865;28;20223;-84
2023/01/17 11:05:45;;;;;;;21.17;10.68;;;;;;;9.68;nan;-24087.41;5031251;28;20559;-84
2023/01/17 11:08:12;;;;;;;19.67;9.25;;;;;;;9.56;nan;-24084.03;5031332;28;20185;-84
2023/01/17 11:10:47;;;;;;;23.27;10.30;;;;;;;9.21;nan;-24074.41;5032315;28;20199;-85
2023/01/17 11:13:30;;;;;;;25.45;10.60;;;;;;;9.32;nan;-24077.53;5030430;28;20186;-85
2023/01/17 11:16:00;;;;;;;22.67;9.13;;;;;;;9.91;nan;-24093.78;5035916;28;20156;-81
2023/01/17 11:18:33;;;;;;;19.08;8.90;;;;;;;9.67;nan;-24087.28;5034166;28;20206;-83
2023/01/17 11:21:10;;;;;;;24.40;10.88;;;;;;;9.53;nan;-24083.31;5036060;28;20163;-82
2023/01/17 11:23:36;;;;;;;29.60;11.02;;;;;;;10.30;nan;-24104.66;5035378;28;20206;-82
2023/01/17 11:26:06;;;;;;;26.23;11.10;;;;;;;10.07;nan;-24098.44;5034505;28;20586;-82
2023/01/17 11:28:36;;;;;;;23.98;10.25;;;;;;;10.48;nan;-24109.88;5035290;28;20175;-82
2023/01/17 11:31:22;;;;;;;30.98;11.23;;;;;;;10.77;nan;-24117.78;5034178;28;20264;-85
2023/01/17 11:33:54;;;;;;;27.23;12.68;;;;;;;10.56;nan;-24112.13;5034397;28;20190;-86
2023/01/17 11:36:31;;;;;;;25.83;11.75;;;;;;;10.31;nan;-24105.06;5035158;28;20282;-83
2023/01/17 11:39:01;;;;;;;27.52;12.05;;;;;;;10.36;nan;-24106.47;5035489;28;20254;-83
2023/01/17 11:41:34;;;;;;;26.08;12.48;;;;;;;9.94;nan;-24094.63;5034461;28;20262;-80
2023/01/17 11:44:01;;;;;;;28.67;13.15;;;;;;;10.14;nan;-24100.41;5035560;28;20175;-84
2023/01/17 11:46:28;;;;;;;22.40;10.93;;;;;;;9.53;nan;-24083.16;5033768;28;20668;-82
2023/01/17 11:48:59;;;;;;;29.20;12.15;;;;;;;9.31;nan;-24077.09;5034983;28;20210;-85
2023/01/17 11:51:30;;;;;;;28.92;12.13;;;;;;;9.50;nan;-24082.31;5035327;28;20186;-84
2023/01/17 11:54:05;;;;;;;28.50;12.38;;;;;;;9.45;nan;-24081.06;5035638;28;20173;-85
2023/01/17 11:56:32;;;;;;;35.55;13.00;;;;;;;9.56;nan;-24084.03;5034313;28;20222;-82
2023/01/17 11:59:33;;;;;;;34.47;13.20;;;;;;;9.41;nan;-24079.91;5035446;28;20184;-81
2023/01/17 12:02:30;;;;;;;32.90;13.48;;;;;;;9.26;nan;-24075.69;5047610;28;20625;-81
2023/01/17 12:05:17;;;;;;;44.92;16.92;;;;;;;9.67;nan;-24087.28;5055340;28;20168;-82
2023/01/17 12:07:45;;;;;;;48.42;18.08;;;;;;;9.80;nan;-24090.66;5023298;28;20199;-82
2023/01/17 12:10:13;;;;;;;33.67;14.57;;;;;;;10.41;nan;-24107.75;5033642;28;20297;-83
2023/01/17 12:15:44;;;;;;;31.50;11.52;;;;;;;10.59;nan;-24112.81;5035565;28;20238;-85
2023/01/17 12:19:01;;;;;;;31.13;12.57;;;;;;;10.62;nan;-24113.81;5034174;28;20225;-83
2023/01/17 12:21:45;;;;;;;29.67;12.75;;;;;;;10.76;nan;-24117.47;5008275;28;20187;-82
2023/01/17 12:24:57;;;;;;;29.40;12.68;;;;;;;10.52;nan;-24110.84;5033479;28;20176;-82
2023/01/17 12:27:48;;;;;;;39.85;13.52;;;;;;;10.35;nan;-24106.19;4997557;28;20231;-81
2023/01/17 12:30:29;;;;;;;27.45;12.68;;;;;;;10.23;nan;-24102.66;5033922;28;20632;-82
2023/01/17 12:33:16;;;;;;;38.25;14.10;;;;;;;10.45;nan;-24109.03;5034757;28;20175;-83
2023/01/17 12:35:54;;;;;;;29.60;13.88;;;;;;;10.01;nan;-24096.72;5034631;28;20258;-83
2023/01/17 12:38:40;;;;;;;34.00;14.20;;;;;;;9.54;nan;-24083.59;5032733;28;20172;-82
2023/01/17 12:41:12;;;;;;;46.85;18.00;;;;;;;9.75;nan;-24089.38;5033530;28;20187;-83
2023/01/17 12:43:43;;;;;;;43.55;17.90;;;;;;;10.01;nan;-24096.59;5032961;28;20191;-83
2023/01/17 12:46:25;;;;;;;44.17;16.58;;;;;;;9.54;nan;-24083.59;5032759;28;20175;-84
2023/01/17 12:49:26;;;;;;;38.97;14.07;;;;;;;9.85;nan;-24092.06;5032301;28;20203;-83
2023/01/17 12:51:58;;;;;;;30.52;13.35;;;;;;;9.28;nan;-24076.25;5029511;28;20186;-82
2023/01/17 12:54:38;;;;;;;30.95;12.48;;;;;;;9.90;nan;-24093.63;5053655;28;20155;-85
2023/01/17 12:57:07;;;;;;;17.83;9.10;;;;;;;9.77;nan;-24089.94;5053514;28;20167;-84
2023/01/17 12:59:45;;;;;;;24.20;11.65;;;;;;;9.69;nan;-24087.84;5053510;28;20174;-84
2023/01/17 13:02:35;;;;;;;24.08;11.65;;;;;;;10.13;nan;-24099.97;5051806;28;20326;-84
2023/01/17 13:05:15;;;;;;;17.70;10.43;;;;;;;10.02;nan;-24097.03;5053297;28;20173;-85
2023/01/17 13:08:19;;;;;;;24.83;9.82;;;;;;;9.97;nan;-24095.59;5052015;28;20182;-85
2023/01/17 13:10:49;;;;;;;27.50;8.80;;;;;;;9.65;nan;-24086.56;5052138;28;20521;-82
2023/01/17 13:13:22;;;;;;;23.85;9.77;;;;;;;9.54;nan;-24083.47;5051903;28;20175;-84
2023/01/17 13:15:53;;;;;;;21.65;8.77;;;;;;;9.98;nan;-24095.75;5053156;28;20178;-84
2023/01/17 13:18:24;;;;;;;20.63;8.57;;;;;;;9.76;nan;-24089.81;5051824;28;20694;-86
2023/01/17 13:21:20;;;;;;;26.17;9.50;;;;;;;10.45;nan;-24109.03;5051915;28;20304;-84